首页
METAR-TAF:

METAR-TAF

机场 :

Savannah/Hilton Head International Airport

薩凡納, 喬治亞, 美国

纬度: 32-07-08N, 经度: 081-12-08W, 海拔: 15米

当前天气观测

该预报发布于54分钟前的08:53 UTC
风速7节,风向北转东北
温度 8°C
湿度 93%
气压 1019 hPa
能見度: 12.9公里
阴天层高于400英尺

METAR: KSAV 150853Z 02007KT 8SM RA OVC004 08/07 A3008 RMK AO2 SLP185 P0007 60022 T00780072 56025

时间: 04:47 (09:47 UTC)

预报

该预报发布于10分钟前的09:37 UTC
预报有效从15日的 10点(UTC)到 16日的 06点(UTC)
风速8节,风向
能見度: 9.7公里
阴天层高于400英尺
小雨, 轻雾
从 15日的 1400点(UTC)
风速10节,风向,有时为18节阵风
能見度: 8.0公里
阴天层高于600英尺
小雨, 轻雾
从 15日的 1600点(UTC)
风速8节,风向北转西北
能見度: 10公里
散云层高于600英尺
阴天层高于800英尺
小雨
从 15日的 2000点(UTC)
风速7节,风向北转西北
能見度: 10公里
散云层高于800英尺
阴天层高于1200英尺

TAF: KSAV 150937Z 1510/1606 01008KT 6SM -RA BR OVC004 FM151400 36010G18KT 5SM -RA BR OVC006 FM151600 34008KT P6SM -RA SCT006 OVC008 FM152000 34007KT P6SM SCT008 OVC012

超过4000个机场的气象观测和天气预报(METAR&TAF报告)。

可查询的气象台以黄色和红色小点在地图上表示。

将鼠标移到小点上方,可查看气象台名称。

然后点击查看天气观测和预报。

如需切换地图:点击带黑十字的绿色按钮放大地图;点击带横线的绿色按钮缩小地图;或者点击绿色箭头查看邻近地区的地图。


METAR-TAF: